SAOU/LUQ METAR and TAF weather

Enter ICAO airport designator
Station Type Date Time Source
SAOU METAR 2021/04/10 20:20 UTC NOAA

SAOU 102020Z 14015G28KT 9999 SCT015 BKN100 11/10 Q1018


Station Type Date Time Source
SAOU Decoded METAR 2021/04/10 20:20 UTC NOAA

San Luis Aerodrome, Argentina (SAOU) 33-16S 066-21W 713M
Apr 10, 2021 - 04:20 PM EDT / 2021.04.10 2020 UTC
Wind: from the SE (140 degrees) at 17 MPH (15 KT) gusting to 32 MPH (28 KT):0
Visibility: greater than 7 mile(s):0
Sky conditions: mostly cloudy
Temperature: 51 F (11 C)
Dew Point: 50 F (10 C)
Relative Humidity: 93%
Pressure (altimeter): 30.06 in. Hg (1018 hPa)
ob: SAOU 102020Z 14015G28KT 9999 SCT015 BKN100 11/10 Q1018
cycle: 20

Station Type Date Time Source
SAOU TAF 2021/02/16 18:09 UTC NOAA

TAF SAOU 161100Z 1618/1718 VRB03KT 9999 FEW040 TX28/1619Z TN17/1710Z
BECMG 1704/1706 36010KT

Example: see airport list